Share

Arapahoe, CO

5:28 PM MDT on April 23, 2014 (GMT -0600)
DW8525 (KCOCHEYE5) Elev 4295 ft | 38.82 °N, 102.35 °W | Change Station
Active Advisory: Blowing Dust Advisory Active Notice: Local Storm Report

Current weather conditions updated 2 seconds ago

Clear
Clear
78.3 °F
Feels Like 77 °F
N
0.0
Wind Variable Wind from West
Gusts 0.0 mph
Sunrise 6:01 AM
Sunset 7:33 PM
Moon Waning Crescent

Tomorrow is forecast to be Much Cooler than today.

Pressure 29.37 in
Visibility 10.0 miles
Clouds Clear
Heat Index 77 °F
Dew Point 22 °F
Humidity 13%
Rainfall 0.00 in
Snow Depth Not available.
UV 3 out of 16
Pollen 11.50 out of 12
Air Quality Not available.
Flu Activity Sporadic
METAR KITR 232253Z AUTO 04018KT 10SM CLR 23/03 A2952 RMK AO2 PK WND 03029/2235 SLP945 T02330033

More Conditions Fewer Conditions

Pressure 29.37 in
Visibility 10.0 miles
Clouds Clear
Heat Index 77 °F
Dew Point 22 °F
Humidity 13%
Rainfall 0.00 in
Snow Depth Not available.
UV 3 out of 16
Pollen 11.50 out of 12
Air Quality Not available.
Flu Activity Sporadic
METAR KITR 232253Z AUTO 04018KT 10SM CLR 23/03 A2952 RMK AO2 PK WND 03029/2235 SLP945 T02330033

More Conditions Fewer Conditions

10-Day Weather Forecast

Almanac

Astronomy

Apr. 23, 2014 Rise Set
Actual Time 6:01 AM MDT 7:33 PM MDT
Civil Twilight 5:33 AM MDT 8:02 PM MDT
Nautical Twilight 4:59 AM MDT 8:36 PM MDT
Astronomical Twilight 4:23 AM MDT 9:12 PM MDT
Moon 2:31 AM MDT 1:47 PM MDT
Length of Visible Light 14h 28m
Length of Day
13h 32m
Tomorrow will be 2m 18s longer.
Waning Crescent, 32% of the Moon is Illuminated
Today
Waning Crescent
Apr 29
New
May 6
First Quarter
May 14
Full
May 21
Last Quarter

Today's Extremes

State Highs State Lows

Community

  • Nestled In
    Nestled In
  • Stunning Sunrise
    Stunning Sunrise
  • spring flowers
    spring flowers
  • Earth Day Spectrum Ove' Blue
    Earth Day Spectrum Ove' Blue
  • BARN B&W
    BARN B&W

WunderPhotos

Upload Photos

1,704,452 photos uploaded!

WunderBlogs® & News

Nearby

Snow Depth

Station Depth Elevation
Glen Cove 11 in 11460 ft
Echo Lake 25 in 10600 ft
Medano Pass 0 in 9620 ft
Apishapa 0 in 10000 ft
South Colony 58 in 10800 ft

Coastal Water Temperatures

Place Temperature
No Stations Reporting

Earthquake Activity

City Distance Mag. Time & Date
No recent earthquake activity has been reported nearby.
Minimum magnitude displayed is 2.5.

Nearby Weather Stations

Station Location Temp. Heat Index Dew Point Humidity Wind Precip. Elev Updated Type
MesoWest ARAPHO , Arapahoe, CO 82 °F 80 °F - - North  at  - 0.00 in / hr 3991 ft 3:40 PM MDT MADIS
DW8525, Cheyenne Wells, CO 78.3 °F 77 °F 22 °F 13% West  at  0.0 mph 0.00 in / hr 4295 ft 5:28 PM MDT Rapid Fire
4M Feeders, Stratton, CO 70.6 °F 77 °F 42 °F 35% ENE  at  0.0 mph 0.00 in / hr 4531 ft 5:28 PM MDT Normal

Show More Stations Show Fewer Stations

What do you think?

We're not finished. Please let us know what you like, what you don't like, and what you are still missing.